Time;durP1;ratioP1;P1;durP2;ratioP2;P2;SDS_P1;SDS_P2;PMS_P1;PMS_P2;Temp;Humidity;BMP_temperature;BMP_pressure;BME280_temperature;BME280_humidity;BME280_pressure;Samples;Min_cycle;Max_cycle;Signal;HPM_P1;HPM_P2
2021/01/08 00:01:11;;;;;;;108.57;39.75;;;;;;;5.35;66.90;100477.59;1777056;79;21172;-67
2021/01/08 00:03:40;;;;;;;65.47;27.22;;;;;;;5.36;66.96;100478.03;1803428;79;21589;-67
2021/01/08 00:06:08;;;;;;;29.63;15.53;;;;;;;5.36;67.00;100479.75;1784384;79;21121;-67
2021/01/08 00:08:36;;;;;;;20.72;11.35;;;;;;;5.35;66.97;100481.50;1796730;80;21138;-68
2021/01/08 00:11:06;;;;;;;16.95;10.68;;;;;;;5.36;66.95;100480.64;1799513;79;21157;-68
2021/01/08 00:13:33;;;;;;;15.93;10.55;;;;;;;5.38;66.97;100481.95;1802741;79;21668;-68
2021/01/08 00:16:01;;;;;;;15.03;10.58;;;;;;;5.36;66.97;100480.64;1803233;78;21122;-67
2021/01/08 00:18:29;;;;;;;14.65;10.03;;;;;;;5.40;67.03;100484.59;1803407;78;21538;-67
2021/01/08 00:20:56;;;;;;;15.48;10.90;;;;;;;5.39;67.07;100485.01;1802332;79;21337;-67
2021/01/08 00:23:24;;;;;;;45.80;21.17;;;;;;;5.38;67.12;100483.25;1803090;79;21146;-67
2021/01/08 00:25:52;;;;;;;99.28;38.25;;;;;;;5.38;67.13;100491.53;1803094;79;21702;-67
2021/01/08 00:28:20;;;;;;;80.95;36.83;;;;;;;5.36;67.29;100495.00;1802462;79;21162;-68
2021/01/08 00:30:47;;;;;;;57.10;30.60;;;;;;;5.37;67.31;100489.33;1803271;78;21155;-67
2021/01/08 00:33:15;;;;;;;44.93;27.20;;;;;;;5.27;67.47;100484.90;1811582;79;21440;-68
2021/01/08 00:35:43;;;;;;;24.80;15.50;;;;;;;5.23;67.48;100482.66;1816363;79;21123;-67
2021/01/08 00:38:11;;;;;;;18.65;11.90;;;;;;;5.20;67.53;100478.30;1817869;79;21122;-69
2021/01/08 00:40:39;;;;;;;14.38;10.23;;;;;;;5.18;67.50;100475.20;1816683;79;21616;-68
2021/01/08 00:43:07;;;;;;;16.77;11.08;;;;;;;5.18;67.63;100465.66;1820672;79;21162;-67
2021/01/08 00:45:35;;;;;;;13.38;10.25;;;;;;;5.21;67.71;100461.78;1821777;79;21542;-67
2021/01/08 00:48:04;;;;;;;14.20;9.68;;;;;;;5.28;67.64;100450.97;1819941;79;21154;-67
2021/01/08 00:50:31;;;;;;;14.50;9.70;;;;;;;5.31;67.66;100456.23;1822612;79;21167;-67
2021/01/08 00:52:59;;;;;;;13.28;10.35;;;;;;;5.33;67.62;100464.95;1823316;79;21170;-68
2021/01/08 00:55:27;;;;;;;14.03;9.75;;;;;;;5.40;67.38;100467.63;1822194;79;21171;-67
2021/01/08 00:57:56;;;;;;;13.95;9.30;;;;;;;5.37;67.36;100476.28;1823044;79;21118;-68
2021/01/08 01:00:24;;;;;;;21.12;13.48;;;;;;;5.45;67.13;100477.24;1822599;79;21164;-67
2021/01/08 01:02:51;;;;;;;15.90;10.82;;;;;;;5.33;67.34;100476.69;1817284;79;21490;-67
2021/01/08 01:05:19;;;;;;;15.23;9.68;;;;;;;5.28;67.54;100478.38;1817989;79;21118;-67
2021/01/08 01:07:49;;;;;;;12.68;8.05;;;;;;;5.27;67.63;100483.14;1814470;79;21143;-67
2021/01/08 01:10:17;;;;;;;13.73;9.53;;;;;;;5.26;67.59;100490.53;1814645;79;21289;-68
2021/01/08 01:12:45;;;;;;;16.23;11.85;;;;;;;5.22;67.54;100493.95;1821558;79;21358;-67
2021/01/08 01:15:17;;;;;;;15.18;10.53;;;;;;;5.19;67.58;100486.09;1821003;78;21142;-67
2021/01/08 01:17:43;;;;;;;16.75;12.33;;;;;;;5.26;67.40;100489.22;1816987;79;21596;-69
2021/01/08 01:20:13;;;;;;;13.48;10.20;;;;;;;5.29;67.46;100491.01;1822475;79;21170;-67
2021/01/08 01:22:40;;;;;;;14.00;10.08;;;;;;;5.26;67.56;100489.22;1822541;78;21098;-68
2021/01/08 01:25:11;;;;;;;14.13;9.83;;;;;;;5.24;67.58;100505.73;1804090;79;21180;-68
2021/01/08 01:27:38;;;;;;;12.68;9.08;;;;;;;5.24;67.69;100497.47;1814944;79;21595;-67
2021/01/08 01:30:08;;;;;;;14.28;8.93;;;;;;;5.25;67.74;100498.36;1813817;79;21618;-67
2021/01/08 01:32:36;;;;;;;14.50;9.53;;;;;;;5.27;67.86;100488.81;1818660;78;21146;-67
2021/01/08 01:35:05;;;;;;;13.28;8.48;;;;;;;5.31;67.86;100492.77;1820635;79;21102;-67
2021/01/08 01:37:33;;;;;;;12.75;8.70;;;;;;;5.35;67.78;100487.13;1814726;79;21158;-67
2021/01/08 01:40:00;;;;;;;10.60;8.23;;;;;;;5.37;67.75;100493.25;1811551;79;21155;-67
2021/01/08 01:42:28;;;;;;;11.55;8.23;;;;;;;5.41;67.65;100492.88;1799074;79;21102;-67
2021/01/08 01:44:56;;;;;;;12.05;8.40;;;;;;;5.43;67.57;100489.84;1810453;79;21543;-67
2021/01/08 01:47:23;;;;;;;13.78;8.98;;;;;;;5.51;67.39;100492.12;1811574;79;21151;-67
2021/01/08 01:49:52;;;;;;;11.83;8.60;;;;;;;5.54;67.28;100492.56;1782603;80;21171;-68
2021/01/08 01:52:20;;;;;;;11.30;7.75;;;;;;;5.55;67.24;100496.92;1768321;81;21166;-67
2021/01/08 01:54:48;;;;;;;11.35;8.20;;;;;;;5.59;67.05;100503.48;1798142;79;21191;-68
2021/01/08 01:57:16;;;;;;;12.28;8.90;;;;;;;5.54;67.20;100503.87;1820891;78;21142;-67
2021/01/08 01:59:43;;;;;;;10.80;7.75;;;;;;;5.64;67.02;100514.86;1819711;79;21150;-66
2021/01/08 02:02:16;;;;;;;12.75;8.68;;;;;;;5.62;66.94;100508.74;1821148;79;21143;-67
2021/01/08 02:04:44;;;;;;;11.22;8.00;;;;;;;5.56;67.11;100514.34;1819367;78;21561;-67
2021/01/08 02:07:12;;;;;;;12.55;9.40;;;;;;;5.45;67.36;100522.06;1798320;79;21146;-67
2021/01/08 02:09:39;;;;;;;13.05;8.80;;;;;;;5.49;67.32;100527.33;1819634;79;21601;-67
2021/01/08 02:12:08;;;;;;;12.95;9.48;;;;;;;5.51;67.21;100524.75;1819172;79;21103;-68
2021/01/08 02:14:35;;;;;;;11.60;8.10;;;;;;;5.49;67.29;100525.16;1813095;79;21107;-67
2021/01/08 02:17:03;;;;;;;12.55;8.88;;;;;;;5.49;67.36;100521.25;1795241;80;21581;-68
2021/01/08 02:19:50;;;;;;;12.43;8.73;;;;;;;5.52;67.36;100521.25;1744203;81;21113;-67
2021/01/08 02:22:23;;;;;;;12.50;8.93;;;;;;;5.50;67.48;100523.00;1795445;80;21138;-69
2021/01/08 02:25:19;;;;;;;12.45;8.70;;;;;;;5.54;67.35;100526.06;1766111;81;21557;-68
2021/01/08 02:28:07;;;;;;;9.90;6.97;;;;;;;5.45;67.27;100533.38;1789435;80;21118;-68
2021/01/08 02:30:36;;;;;;;13.25;8.98;;;;;;;5.38;67.30;100533.30;1776104;80;21110;-68
2021/01/08 02:33:04;;;;;;;12.25;9.20;;;;;;;5.42;67.31;100542.47;1798473;80;21146;-68
2021/01/08 02:35:32;;;;;;;13.28;9.10;;;;;;;5.57;67.04;100539.15;1743916;80;21602;-68
2021/01/08 02:38:01;;;;;;;11.63;7.78;;;;;;;5.62;67.02;100540.08;1772876;80;21133;-68
2021/01/08 02:40:28;;;;;;;12.25;9.00;;;;;;;5.49;67.43;100552.58;1772735;80;21594;-68
2021/01/08 02:43:00;;;;;;;11.70;8.58;;;;;;;5.53;67.47;100558.70;1791162;80;21582;-67
2021/01/08 02:45:28;;;;;;;11.78;8.18;;;;;;;5.63;67.32;100556.64;1818056;79;21122;-68
2021/01/08 02:47:56;;;;;;;12.68;9.58;;;;;;;5.66;67.25;100557.53;1822586;79;21565;-69
2021/01/08 02:50:25;;;;;;;12.37;8.48;;;;;;;5.66;67.32;100563.20;1823101;79;21168;-69
2021/01/08 02:52:59;;;;;;;12.30;8.10;;;;;;;5.64;67.33;100563.17;1823424;79;21143;-69
2021/01/08 02:55:31;;;;;;;11.35;8.03;;;;;;;5.65;67.31;100560.14;1822425;79;21630;-68
2021/01/08 02:57:59;;;;;;;11.35;8.58;;;;;;;5.65;67.29;100549.70;1823350;79;21154;-68
2021/01/08 03:00:32;;;;;;;11.70;8.03;;;;;;;5.66;67.11;100557.98;1799124;79;21158;-68
2021/01/08 03:03:00;;;;;;;11.12;8.35;;;;;;;5.60;67.02;100560.08;1811645;79;21336;-68
2021/01/08 03:05:30;;;;;;;12.33;8.73;;;;;;;5.48;67.18;100558.21;1823277;79;21158;-69
2021/01/08 03:07:58;;;;;;;11.33;8.03;;;;;;;5.42;67.32;100556.83;1795257;79;21582;-68
2021/01/08 03:10:25;;;;;;;10.72;7.62;;;;;;;5.54;67.09;100562.61;1815042;79;22489;-68
2021/01/08 03:13:02;;;;;;;11.08;7.78;;;;;;;5.50;67.05;100561.72;1816797;79;21163;-69
2021/01/08 03:15:31;;;;;;;11.63;8.25;;;;;;;5.45;67.12;100558.17;1823652;79;21137;-68
2021/01/08 03:18:00;;;;;;;11.73;8.05;;;;;;;5.40;67.34;100558.98;1822794;79;21130;-68
2021/01/08 03:20:27;;;;;;;11.08;8.05;;;;;;;5.40;67.35;100568.98;1823258;79;21134;-68
2021/01/08 03:22:55;;;;;;;9.83;7.47;;;;;;;5.37;67.27;100568.95;1798203;79;21167;-68
2021/01/08 03:25:23;;;;;;;11.05;7.67;;;;;;;5.44;67.21;100572.08;1813764;79;21203;-68
2021/01/08 03:27:50;;;;;;;9.83;7.12;;;;;;;5.54;66.83;100570.45;1814611;79;21226;-67
2021/01/08 03:30:20;;;;;;;10.20;7.78;;;;;;;5.48;67.00;100566.05;1814050;79;21131;-68
2021/01/08 03:32:47;;;;;;;10.68;7.10;;;;;;;5.51;67.08;100567.39;1814998;79;21134;-68
2021/01/08 03:35:15;;;;;;;10.55;7.72;;;;;;;5.45;67.17;100573.84;1796821;80;21153;-67
2021/01/08 03:37:43;;;;;;;11.60;8.48;;;;;;;5.42;67.05;100578.16;1794014;79;21157;-67
2021/01/08 03:40:12;;;;;;;10.60;7.55;;;;;;;5.25;67.21;100580.56;1803174;78;21573;-68
2021/01/08 03:42:39;;;;;;;11.30;8.08;;;;;;;5.23;67.22;100570.53;1802847;79;21145;-67
2021/01/08 03:45:09;;;;;;;11.08;8.15;;;;;;;5.19;67.26;100579.63;1802142;79;21114;-67
2021/01/08 03:47:36;;;;;;;10.23;7.12;;;;;;;5.29;67.14;100584.52;1796830;79;21149;-68
2021/01/08 03:50:05;;;;;;;14.25;8.58;;;;;;;5.29;67.25;100588.88;1800426;79;21110;-68
2021/01/08 03:52:33;;;;;;;23.67;11.15;;;;;;;5.34;67.19;100587.18;1803871;78;21158;-68
2021/01/08 03:55:00;;;;;;;14.43;9.15;;;;;;;5.61;66.35;100585.33;1799955;78;21153;-67
2021/01/08 03:57:28;;;;;;;11.10;7.97;;;;;;;5.40;66.70;100586.40;1797485;79;21511;-68
2021/01/08 03:59:55;;;;;;;11.20;7.70;;;;;;;5.63;66.15;100585.37;1798051;79;21142;-67
2021/01/08 04:02:23;;;;;;;43.85;17.07;;;;;;;5.49;66.32;100584.77;1799538;78;21157;-67
2021/01/08 04:04:51;;;;;;;41.63;16.97;;;;;;;5.58;66.20;100588.35;1797228;80;21182;-66
2021/01/08 04:07:19;;;;;;;31.93;13.28;;;;;;;5.57;66.31;100586.59;1798076;79;21118;-67
2021/01/08 04:09:47;;;;;;;20.88;11.05;;;;;;;5.68;66.02;100586.71;1803563;79;21146;-66
2021/01/08 04:12:14;;;;;;;18.82;10.60;;;;;;;5.39;66.80;100588.56;1799686;79;21157;-68
2021/01/08 04:14:42;;;;;;;17.12;8.98;;;;;;;5.28;66.98;100596.27;1797525;78;21181;-66
2021/01/08 04:17:09;;;;;;;16.55;9.10;;;;;;;5.29;66.87;100593.66;1799263;79;21534;-67
2021/01/08 04:19:39;;;;;;;16.23;9.53;;;;;;;5.33;66.93;100595.87;1803251;78;21153;-67
2021/01/08 04:22:06;;;;;;;16.27;9.73;;;;;;;5.34;66.85;100589.37;1795674;80;21723;-67
2021/01/08 04:24:34;;;;;;;17.90;10.43;;;;;;;5.54;66.22;100587.42;1797061;80;21284;-66
2021/01/08 04:27:01;;;;;;;15.45;9.15;;;;;;;5.59;66.03;100587.05;1801268;79;21557;-67
2021/01/08 04:29:29;;;;;;;11.93;7.75;;;;;;;5.59;65.87;100587.49;1803331;79;21150;-67
2021/01/08 04:31:56;;;;;;;16.30;8.80;;;;;;;5.51;65.86;100592.19;1803921;79;21146;-67
2021/01/08 04:34:24;;;;;;;11.93;8.05;;;;;;;5.33;66.37;100591.95;1801837;79;21150;-67
2021/01/08 04:36:51;;;;;;;19.35;11.80;;;;;;;5.45;66.18;100589.95;1775694;79;21110;-67
2021/01/08 04:39:19;;;;;;;19.12;11.68;;;;;;;5.30;66.56;100585.42;1803396;79;21537;-67
2021/01/08 04:41:46;;;;;;;14.63;10.20;;;;;;;5.40;66.30;100586.40;1803392;79;21161;-67
2021/01/08 04:44:15;;;;;;;13.22;8.80;;;;;;;5.34;66.58;100591.98;1780115;79;21272;-66
2021/01/08 04:46:42;;;;;;;12.98;8.43;;;;;;;5.61;66.04;100594.92;1796000;79;21130;-67
2021/01/08 04:49:10;;;;;;;12.80;8.18;;;;;;;5.56;66.28;100593.98;1784596;79;21186;-68
2021/01/08 04:51:38;;;;;;;14.68;8.60;;;;;;;5.54;66.31;100593.09;1800882;79;21589;-66
2021/01/08 04:54:06;;;;;;;12.03;7.78;;;;;;;5.39;66.68;100584.64;1800562;79;21636;-66
2021/01/08 04:56:45;;;;;;;11.83;8.40;;;;;;;5.40;66.69;100587.70;1803298;79;21163;-67
2021/01/08 04:59:18;;;;;;;15.72;8.15;;;;;;;5.44;66.61;100592.11;1818140;77;22450;-65
2021/01/08 05:01:46;;;;;;;14.00;9.35;;;;;;;5.39;66.55;100593.78;1698612;84;21201;-65
2021/01/08 05:04:13;;;;;;;13.62;8.50;;;;;;;5.31;66.78;100599.78;1697780;84;21162;-66
2021/01/08 05:06:41;;;;;;;13.78;8.98;;;;;;;5.29;66.87;100600.63;1702260;84;21147;-66
2021/01/08 05:09:09;;;;;;;10.90;7.90;;;;;;;5.33;66.76;100606.31;1708054;83;21129;-64
2021/01/08 05:11:36;;;;;;;14.03;8.85;;;;;;;5.33;66.73;100601.98;1706674;83;21154;-65
2021/01/08 05:14:10;;;;;;;11.65;7.87;;;;;;;5.36;66.78;100605.94;1726350;83;21142;-65
2021/01/08 05:16:37;;;;;;;12.20;8.90;;;;;;;5.41;66.68;100599.45;1724744;83;21165;-66
2021/01/08 05:19:05;;;;;;;12.15;8.05;;;;;;;5.40;66.64;100600.75;1701114;83;21109;-66
2021/01/08 05:21:33;;;;;;;10.48;7.75;;;;;;;5.28;66.71;100594.52;1698140;83;21613;-66
2021/01/08 05:24:02;;;;;;;13.22;9.50;;;;;;;5.26;66.86;100599.28;1714598;83;21630;-67
2021/01/08 05:26:30;;;;;;;13.32;8.98;;;;;;;5.26;67.10;100602.75;1699494;84;21177;-66
2021/01/08 05:29:00;;;;;;;13.30;8.50;;;;;;;5.30;67.07;100611.52;1714371;83;21153;-65
2021/01/08 05:31:30;;;;;;;12.37;8.80;;;;;;;5.33;67.01;100608.91;1713519;84;21197;-67
2021/01/08 05:33:57;;;;;;;;;;;;;;;5.40;66.86;100601.62;1728276;83;21167;-66
2021/01/08 05:36:25;;;;;;;11.18;7.35;;;;;;;5.42;66.85;100604.27;1725862;83;20124;-66
2021/01/08 05:38:57;;;;;;;11.05;7.67;;;;;;;5.40;66.93;100602.06;1722620;83;21590;-66
2021/01/08 05:41:26;;;;;;;12.43;8.03;;;;;;;5.41;66.98;100600.76;1716349;83;21613;-67
2021/01/08 05:43:54;;;;;;;11.08;7.87;;;;;;;5.46;66.95;100600.84;1713626;84;21590;-66
2021/01/08 05:46:34;;;;;;;10.58;7.90;;;;;;;5.47;66.82;100598.23;1693791;83;21159;-66
2021/01/08 05:49:04;;;;;;;13.50;8.38;;;;;;;5.45;66.90;100602.55;1717887;83;21142;-67
2021/01/08 05:51:37;;;;;;;11.88;8.23;;;;;;;5.42;66.96;100612.09;1720646;83;21637;-66
2021/01/08 05:54:05;;;;;;;14.18;8.78;;;;;;;5.40;67.30;100614.67;1720268;83;21199;-66
2021/01/08 05:56:36;;;;;;;11.40;7.87;;;;;;;5.43;67.35;100616.02;1710074;83;21188;-67
2021/01/08 05:59:07;;;;;;;11.03;7.65;;;;;;;5.45;67.33;100614.30;1708084;83;21163;-67
2021/01/08 06:01:38;;;;;;;12.40;8.45;;;;;;;5.48;67.41;100618.70;1694147;84;21620;-68
2021/01/08 06:04:08;;;;;;;12.73;8.60;;;;;;;5.48;67.33;100618.70;1688495;84;21269;-68
2021/01/08 06:06:40;;;;;;;13.22;9.18;;;;;;;5.56;67.17;100616.17;1734815;82;21169;-67
2021/01/08 06:09:12;;;;;;;15.10;9.13;;;;;;;5.57;67.45;100606.19;1730046;82;21155;-68
2021/01/08 06:11:45;;;;;;;12.43;8.18;;;;;;;5.53;67.66;100597.86;1728561;81;21150;-69
2021/01/08 06:14:15;;;;;;;14.07;8.30;;;;;;;5.49;67.67;100596.96;1661348;85;21633;-68
2021/01/08 06:16:46;;;;;;;11.57;8.15;;;;;;;5.54;67.46;100596.56;1729834;82;21595;-68
2021/01/08 06:19:15;;;;;;;14.03;8.88;;;;;;;5.59;67.36;100599.24;1738040;81;21116;-69
2021/01/08 06:21:45;;;;;;;11.12;8.30;;;;;;;5.60;67.32;100607.08;1732886;82;21158;-69
2021/01/08 06:24:14;;;;;;;14.50;8.13;;;;;;;5.68;67.27;100602.38;1738183;82;21155;-69
2021/01/08 06:26:42;;;;;;;13.70;8.13;;;;;;;5.63;67.51;100607.12;1733374;82;21183;-70
2021/01/08 06:29:23;;;;;;;12.85;9.38;;;;;;;5.61;67.54;100597.08;1718606;83;21136;-69
2021/01/08 06:31:57;;;;;;;14.55;10.35;;;;;;;5.66;67.40;100600.63;1736948;82;21155;-67
2021/01/08 06:34:30;;;;;;;11.93;8.80;;;;;;;5.69;67.34;100601.52;1747730;82;21135;-67
2021/01/08 06:37:10;;;;;;;14.43;10.40;;;;;;;5.75;67.09;100606.37;1748257;81;21124;-67
2021/01/08 06:39:45;;;;;;;14.20;10.93;;;;;;;5.79;66.88;100615.14;1747771;82;21575;-69
2021/01/08 06:42:27;;;;;;;15.40;9.40;;;;;;;5.78;67.00;100619.47;1734565;82;21159;-68
2021/01/08 06:53:13;;;;;;;10.58;7.78;;;;;;;5.64;67.09;100616.70;1819816;77;22186;-65
2021/01/08 06:55:40;;;;;;;11.50;8.33;;;;;;;5.59;67.29;100614.91;1759151;81;21634;-66
2021/01/08 06:58:08;;;;;;;13.75;9.63;;;;;;;5.60;67.39;100618.83;1706070;81;21133;-66
2021/01/08 07:00:38;;;;;;;12.18;8.95;;;;;;;5.61;67.57;100619.72;1750982;81;21557;-66
2021/01/08 07:03:07;;;;;;;12.15;9.70;;;;;;;5.70;67.53;100624.17;1709549;81;21158;-68
2021/01/08 07:05:38;;;;;;;13.62;10.05;;;;;;;5.73;67.58;100617.27;1761716;81;21157;-69
2021/01/08 07:08:09;;;;;;;12.53;9.63;;;;;;;5.75;67.77;100612.91;1739568;81;21154;-69
2021/01/08 07:18:36;;;;;;;15.40;11.68;;;;;;;6.15;68.12;100615.11;1823152;77;22194;-69
2021/01/08 07:21:23;;;;;;;15.95;11.53;;;;;;;6.18;68.11;100619.05;1730400;82;21174;-67
2021/01/08 07:23:55;;;;;;;14.15;11.57;;;;;;;6.30;68.01;100620.91;1742154;81;21613;-67
2021/01/08 07:26:28;;;;;;;14.87;11.00;;;;;;;6.48;67.81;100624.55;1707946;83;21605;-67
2021/01/08 07:28:56;;;;;;;16.62;12.30;;;;;;;6.60;67.86;100616.81;1703255;83;21343;-68
2021/01/08 07:31:31;;;;;;;15.68;11.43;;;;;;;6.36;68.70;100628.80;1693793;83;21175;-67
2021/01/08 07:34:01;;;;;;;16.40;12.75;;;;;;;6.33;68.80;100626.61;1678268;84;21265;-70
2021/01/08 07:36:29;;;;;;;14.35;11.18;;;;;;;6.42;68.69;100632.34;1692078;83;21591;-68
2021/01/08 07:38:57;;;;;;;15.58;10.98;;;;;;;6.47;68.66;100632.81;1710263;82;21191;-68
2021/01/08 07:41:38;;;;;;;14.38;11.22;;;;;;;6.53;68.60;100630.70;1709338;83;21161;-70
2021/01/08 07:44:33;;;;;;;15.35;12.28;;;;;;;6.60;68.70;100621.16;1678723;84;21191;-67
2021/01/08 07:47:23;;;;;;;16.57;12.40;;;;;;;6.72;68.63;100626.48;1709082;82;21182;-70
2021/01/08 07:50:13;;;;;;;16.57;11.68;;;;;;;6.83;68.63;100630.48;1715290;82;21161;-67
2021/01/08 07:52:45;;;;;;;16.37;11.20;;;;;;;6.93;68.56;100628.38;1697183;84;21591;-67
2021/01/08 07:55:15;;;;;;;15.70;11.00;;;;;;;6.98;68.64;100631.02;1697995;82;21584;-70
2021/01/08 07:58:04;;;;;;;16.23;10.98;;;;;;;7.03;68.75;100630.62;1685973;84;21236;-70
2021/01/08 08:00:33;;;;;;;18.67;11.83;;;;;;;7.16;68.51;100634.63;1712038;82;21727;-71
2021/01/08 08:03:01;;;;;;;15.55;11.57;;;;;;;7.23;68.42;100632.04;1714803;82;21236;-68
2021/01/08 08:05:32;;;;;;;20.35;12.33;;;;;;;7.27;68.45;100632.95;1703128;83;21723;-67
2021/01/08 08:08:02;;;;;;;18.37;13.20;;;;;;;7.33;68.51;100629.48;1707708;83;21114;-67
2021/01/08 08:10:30;;;;;;;22.15;14.20;;;;;;;7.41;68.75;100623.41;1687468;84;21605;-70
2021/01/08 08:12:58;;;;;;;20.65;14.30;;;;;;;7.54;68.92;100626.08;1669822;85;21634;-70
2021/01/08 08:15:26;;;;;;;16.93;13.18;;;;;;;7.63;68.87;100624.81;1701972;83;22609;-69
2021/01/08 08:17:53;;;;;;;17.02;12.15;;;;;;;7.70;68.92;100614.80;1701106;83;21323;-69
2021/01/08 08:20:23;;;;;;;17.50;12.00;;;;;;;7.82;68.79;100606.09;1707634;82;21183;-68
2021/01/08 08:22:54;;;;;;;16.00;12.50;;;;;;;7.91;68.80;100598.69;1709044;82;21564;-69
2021/01/08 08:25:25;;;;;;;15.60;11.85;;;;;;;7.99;68.69;100606.55;1709749;82;21149;-68
2021/01/08 08:27:56;;;;;;;15.60;11.20;;;;;;;8.09;68.39;100600.46;1705605;82;21642;-69
2021/01/08 08:30:24;;;;;;;;;;;;;;;8.12;68.22;100605.71;1703965;82;21637;-69
2021/01/08 08:32:52;;;;;;;14.40;10.85;;;;;;;8.17;68.25;100605.28;1675369;84;20508;-69
2021/01/08 08:35:20;;;;;;;14.75;11.55;;;;;;;8.23;68.29;100606.16;1682425;84;21103;-70
2021/01/08 08:37:54;;;;;;;16.00;11.25;;;;;;;8.27;68.30;100603.98;1704579;82;21222;-69
2021/01/08 08:40:25;;;;;;;15.18;11.90;;;;;;;8.31;68.43;100597.42;1704126;82;21299;-70
2021/01/08 08:42:56;;;;;;;17.48;11.55;;;;;;;8.41;68.81;100590.42;1696904;84;21260;-70
2021/01/08 08:45:27;;;;;;;14.70;11.30;;;;;;;8.52;68.90;100597.03;1694959;83;21588;-68
2021/01/08 08:47:57;;;;;;;15.80;11.55;;;;;;;8.59;68.79;100606.66;1705580;84;21209;-70
2021/01/08 08:50:27;;;;;;;16.17;11.95;;;;;;;8.57;68.93;100601.84;1676798;84;21367;-68
2021/01/08 08:52:56;;;;;;;16.17;12.10;;;;;;;8.59;68.62;100595.27;1677753;85;21256;-70
2021/01/08 08:55:34;;;;;;;14.75;10.85;;;;;;;8.60;68.71;100591.36;1709462;82;21589;-68
2021/01/08 08:58:12;;;;;;;15.68;11.70;;;;;;;8.59;68.83;100593.54;1694945;83;21593;-67
2021/01/08 09:00:43;;;;;;;16.12;11.68;;;;;;;8.63;68.86;100594.40;1712482;83;21639;-67
2021/01/08 09:03:22;;;;;;;20.08;13.05;;;;;;;8.68;68.92;100593.06;1690435;84;21213;-70
2021/01/08 09:05:52;;;;;;;18.10;13.98;;;;;;;8.59;69.19;100591.34;1715048;82;21626;-70
2021/01/08 09:08:27;;;;;;;18.27;12.65;;;;;;;8.61;69.27;100598.77;1710143;83;21601;-68
2021/01/08 09:11:27;;;;;;;16.15;11.35;;;;;;;8.60;69.40;100606.20;1718049;83;21170;-68
2021/01/08 09:14:00;;;;;;;14.75;11.43;;;;;;;8.68;69.16;100607.50;1726499;82;21656;-68
2021/01/08 09:16:36;;;;;;;18.57;12.10;;;;;;;8.75;68.99;100609.25;1724466;82;21629;-70
2021/01/08 09:19:10;;;;;;;14.58;11.48;;;;;;;8.79;68.98;100605.75;1707370;82;21635;-68
2021/01/08 09:21:41;;;;;;;16.93;12.35;;;;;;;8.80;68.87;100599.63;1693886;83;21173;-68
2021/01/08 09:24:13;;;;;;;15.10;12.20;;;;;;;8.80;68.74;100602.70;1695338;83;21195;-68
2021/01/08 09:26:44;;;;;;;15.75;10.75;;;;;;;8.89;68.52;100601.34;1707300;81;21189;-69
2021/01/08 09:29:12;;;;;;;13.65;10.32;;;;;;;8.92;68.31;100594.36;1688772;84;21616;-67
2021/01/08 09:31:44;;;;;;;13.53;10.82;;;;;;;8.93;68.38;100575.11;1682897;83;21192;-69
2021/01/08 09:34:19;;;;;;;15.08;11.15;;;;;;;9.05;67.97;100557.58;1709261;83;21232;-67
2021/01/08 09:36:47;;;;;;;15.30;11.20;;;;;;;9.12;67.80;100553.17;1708284;83;21177;-69
2021/01/08 09:39:15;;;;;;;16.35;10.38;;;;;;;9.02;68.12;100552.34;1716418;82;21346;-67
2021/01/08 09:41:43;;;;;;;13.62;10.45;;;;;;;9.07;68.27;100550.55;1727953;81;21216;-69
2021/01/08 09:44:13;;;;;;;11.70;9.70;;;;;;;8.98;68.32;100559.78;1708483;83;21168;-66
2021/01/08 09:46:58;;;;;;;12.20;9.48;;;;;;;9.07;68.30;100558.42;1687526;84;21235;-68
2021/01/08 09:49:28;;;;;;;13.60;10.58;;;;;;;9.08;68.43;100550.55;1689428;82;21222;-66
2021/01/08 09:52:02;;;;;;;15.32;10.18;;;;;;;9.17;69.01;100547.02;1670512;84;21316;-68
2021/01/08 09:54:47;;;;;;;13.18;9.38;;;;;;;9.22;68.74;100549.64;1715650;83;21185;-69
2021/01/08 09:57:37;;;;;;;12.07;8.85;;;;;;;9.27;68.82;100536.48;1696477;82;21189;-69
2021/01/08 10:00:09;;;;;;;10.75;7.67;;;;;;;9.34;68.43;100531.63;1695544;82;21617;-68
2021/01/08 10:02:46;;;;;;;9.43;7.75;;;;;;;9.38;68.00;100528.11;1697969;83;21358;-69
2021/01/08 10:05:29;;;;;;;10.58;8.05;;;;;;;9.44;67.86;100525.45;1685992;84;21636;-66
2021/01/08 10:07:58;;;;;;;9.60;7.08;;;;;;;9.52;67.61;100518.84;1702103;83;21486;-66
2021/01/08 10:10:31;;;;;;;9.40;7.47;;;;;;;9.59;67.48;100511.78;1679948;84;21200;-66
2021/01/08 10:12:59;;;;;;;9.88;7.72;;;;;;;9.63;67.30;100506.52;1689610;84;21514;-66
2021/01/08 10:15:47;;;;;;;9.03;7.70;;;;;;;9.58;66.91;100495.16;1706633;83;21534;-69
2021/01/08 10:18:23;;;;;;;10.82;7.78;;;;;;;9.58;67.11;100495.58;1708854;82;21186;-67
2021/01/08 10:21:08;;;;;;;11.45;7.90;;;;;;;9.63;66.93;100493.80;1717399;82;21227;-67
2021/01/08 10:23:43;;;;;;;9.95;7.55;;;;;;;9.62;66.57;100490.31;1688502;82;21154;-70
2021/01/08 10:26:17;;;;;;;11.25;8.53;;;;;;;9.62;66.57;100485.48;1703638;82;21160;-67
2021/01/08 10:28:55;;;;;;;11.22;7.92;;;;;;;9.61;66.71;100480.69;1707430;82;21195;-66
2021/01/08 10:31:25;;;;;;;11.30;8.30;;;;;;;9.51;67.02;100476.37;1709893;82;21311;-68
2021/01/08 10:33:53;;;;;;;10.38;7.75;;;;;;;9.58;66.71;100474.56;1686998;82;21186;-66
2021/01/08 10:36:21;;;;;;;8.78;6.80;;;;;;;9.62;66.52;100474.55;1700919;81;21197;-66
2021/01/08 10:38:49;;;;;;;8.93;6.80;;;;;;;9.53;66.59;100468.89;1722375;82;21164;-66
2021/01/08 10:41:17;;;;;;;9.15;6.62;;;;;;;9.44;66.58;100461.09;1672124;84;21332;-68
2021/01/08 10:43:45;;;;;;;8.88;6.80;;;;;;;9.37;66.58;100458.06;1705293;81;21634;-69
2021/01/08 10:46:15;;;;;;;8.80;6.83;;;;;;;9.35;66.59;100454.12;1707903;83;21219;-68
2021/01/08 10:48:43;;;;;;;9.35;7.12;;;;;;;9.35;66.76;100450.17;1708446;83;21142;-68
2021/01/08 10:51:11;;;;;;;10.15;7.85;;;;;;;9.47;66.38;100458.45;1677481;84;21386;-68
2021/01/08 10:53:39;;;;;;;10.80;8.58;;;;;;;9.46;66.54;100450.13;1726547;82;21604;-66
2021/01/08 10:56:07;;;;;;;11.28;8.10;;;;;;;9.50;66.29;100441.31;1736544;82;21754;-66
2021/01/08 10:58:35;;;;;;;11.97;8.55;;;;;;;9.53;66.17;100441.75;1706847;83;21177;-67
2021/01/08 11:01:04;;;;;;;12.30;8.33;;;;;;;9.56;65.85;100442.16;1695668;82;21178;-68
2021/01/08 11:03:33;;;;;;;10.38;7.47;;;;;;;9.58;65.43;100453.53;1709165;81;21335;-66
2021/01/08 11:06:03;;;;;;;11.48;8.53;;;;;;;9.57;65.22;100452.68;1716196;81;21152;-66
2021/01/08 11:08:33;;;;;;;10.85;7.75;;;;;;;9.59;65.05;100452.66;1723340;81;21126;-69
2021/01/08 11:11:00;;;;;;;11.30;8.00;;;;;;;9.57;64.99;100447.84;1693033;82;21304;-69
2021/01/08 11:13:28;;;;;;;11.38;8.33;;;;;;;9.51;64.90;100447.46;1694841;83;21345;-69
2021/01/08 11:15:56;;;;;;;9.95;7.12;;;;;;;9.48;65.00;100451.42;1717115;82;21344;-66
2021/01/08 11:18:24;;;;;;;9.40;7.33;;;;;;;9.37;65.03;100448.41;1647632;85;21181;-66
2021/01/08 11:20:51;;;;;;;9.75;7.20;;;;;;;9.28;65.02;100444.98;1673831;84;21186;-65
2021/01/08 11:23:21;;;;;;;11.78;6.45;;;;;;;9.29;64.81;100437.53;1710021;83;21318;-68
2021/01/08 11:25:48;;;;;;;9.75;6.60;;;;;;;9.31;64.46;100434.00;1718943;82;21169;-66
2021/01/08 11:28:16;;;;;;;9.68;6.97;;;;;;;9.30;64.68;100428.77;1714639;82;21141;-65
2021/01/08 11:30:45;;;;;;;9.78;6.75;;;;;;;9.26;64.51;100418.73;1676294;84;21157;-66
2021/01/08 11:33:14;;;;;;;10.93;6.92;;;;;;;9.28;64.52;100432.70;1712219;83;21320;-65
2021/01/08 11:35:42;;;;;;;9.25;6.40;;;;;;;9.29;64.64;100435.77;1710718;82;21327;-66
2021/01/08 11:38:11;;;;;;;8.18;6.15;;;;;;;9.28;64.48;100426.14;1689123;83;21223;-66
2021/01/08 11:40:42;;;;;;;8.10;6.53;;;;;;;9.25;64.45;100422.25;1714086;83;21197;-69
2021/01/08 11:43:13;;;;;;;7.95;5.40;;;;;;;9.25;64.48;100413.05;1706840;83;21308;-66
2021/01/08 11:45:45;;;;;;;7.30;5.97;;;;;;;9.27;64.44;100415.23;1735149;81;21641;-66
2021/01/08 11:48:13;;;;;;;6.65;5.42;;;;;;;9.23;64.35;100414.36;1746930;81;21333;-68
2021/01/08 11:50:40;;;;;;;9.18;5.97;;;;;;;9.23;64.07;100417.45;1738228;82;21662;-66
2021/01/08 11:53:08;;;;;;;7.05;5.10;;;;;;;9.10;64.17;100409.20;1717501;83;21571;-68
2021/01/08 11:55:36;;;;;;;8.85;5.55;;;;;;;9.06;64.16;100403.96;1726080;82;21253;-69